Batchelor, Northern Territory

2:44 PM CST on August 29, 2014 (GMT +0930)
Darwin International | Change Station
CLOSE
Current Station
Airport
Location: Darwin,
Elevation: 98 ft
Nearby Weather Stations

Elev 98 ft 12.42 °S, 130.89 °E | Updated 14 minutes ago

Clear
Clear
90 °F
Feels Like 90 °F
N
10
Wind Variable Wind from ESE

Today
High -- | Low -- °F
--% Chance of Precip.
Yesterday
High -- | Low -- °F
Precip. -- in
6:52 AM 6:41 PM
Waxing Crescent, 12% visible
Pressure 29.89 in
Visibility -9999.0 miles
Clouds
Dew Point 23 °F
Humidity 9%
Rainfall 0.00 in
Snow Depth Not available.
UV Not available.
Pollen Not available.
Air Quality Not available.
Flu Activity Not available.
METAR YPDN 290500Z 11009KT CAVOK 32/M05 Q1012 FM0530 34012KT CAVOK

More Conditions Fewer Conditions

Pressure 29.89 in
Visibility -9999.0 miles
Clouds
Dew Point 23 °F
Humidity 9%
Rainfall 0.00 in
Snow Depth Not available.
UV Not available.
Pollen Not available.
Air Quality Not available.
Flu Activity Not available.
METAR YPDN 290500Z 11009KT CAVOK 32/M05 Q1012 FM0530 34012KT CAVOK

More Conditions Fewer Conditions

10-Day Weather Forecast

Almanac

Astronomy

Aug. 29, 2014 Rise Set
Actual Time 6:52 AM CST 6:41 PM CST
Civil Twilight 6:31 AM CST 7:03 PM CST
Nautical Twilight 6:06 AM CST 7:27 PM CST
Astronomical Twilight 5:41 AM CST 7:52 PM CST
Moon 8:59 AM CST 9:33 PM CST
Length of Visible Light 12h 32m
Length of Day
11h 49m
Tomorrow will be 0m 40s longer.
Waxing Crescent, 12% of the Moon is Illuminated
Today
Waxing Crescent
Sep 2
First Quarter
Sep 8
Full
Sep 15
Last Quarter
Sep 24
New

Yesterday's Extremes

Country Highs Country Lows

Community

WunderPhotos

Upload Photos

1,748,192 photos uploaded!

Nearby

Snow Depth

Not available.

Earthquake Activity

City Distance Mag. Time & Date
No recent earthquake activity has been reported nearby.
Minimum magnitude displayed is 2.5.

Coastal Water Temperatures

Place Temperature
No Stations Reporting

Nearby Weather Stations